Terminal Aerodrome Forecast
Issued by NWS Wilmington, OH

Current Version | Previous Version | Graphics & Text | Print | Product List | Glossary On
Versions: 1 2 3 4 5 6 7 8 9 10 11 12 13 14 15 16 17 18 19
000
FTUS41 KILN 142333
TAFCMH
TAF
KCMH 142333Z 1500/1524 17007KT P6SM SCT250
     FM150400 18008KT P6SM SCT250 WS020/21035KT
     FM150900 20010G17KT P6SM BKN090 WS020/23040KT
     FM151400 21017G32KT P6SM VCSH BKN040
     FM151700 24017G30KT 5SM -SHRA OVC025
     FM152000 25017G28KT P6SM OVC026=

USA.gov is the U.S. government's official web portal to all federal, state and local government web resources and services.